In Rescue
 
Open Full Screen Window  High Contrast Mode
Wind Gusting 15 knots
09
November 29, 2022 10:00 AM EST
Weather Information
Wind Direction
  150 °
Wind Speed
  09 kt (10 mph)
Wind Gust
  15 kt (17 mph)
Altimeter
29.88 in
Visibility
10 SM
Temperature
04° C
39° F
Dewpoint
01° C
34° F
Humidity
81%
1hr Rain Fall
00.00 in.
24hr Rain Fall
00.00 in.
Sky Condition
Scattered @ 12,000 ft
VFR

METAR KRQB 291500Z AUTO 15009G15KT 10SM SCT120 04/01 A2988 RMK AO2 T00390014

FAA Disclaimer: The data displayed is for advisory purposes only and is not to be used for flight planning or operations.